Aeroporto :
LOGIN :

Iscrizione | Disclaimer

   EN    FR    IT 

 










Sommario :    VFR   VFR Marginale   IFR   IFR Intensivo   IFR Molto Intensivo
Visibilità : 
Base nubi : 
>= 8 km
>= 3000ft
5 / 8 km
1000 / 3000 ft
1500m / 5 km
500 / 1000 ft
800 / 1500m
200 / 500 ft
< 800m
< 200 ft
Simboli :   Temporali  Nebbia  Neve Forte  Precipitazioni Forti  Vento > 20 kt
SIGMETs :   Varie  Temporali  Ghiacco  Turbolenza  Onda orograficha  Ceneri Vulcaniche






- Altitudine del aeroporto : 50 ft
- Codice IATA : EDO


LTFD - Bal?kesir Körfez

ULTIMO METAR :
  • 050950Z 07017KT 9999 SCT035 BKN100 14/10 Q1008

METARs OBSOLETI :
  • 050850Z 08020KT 9999 SCT035 BKN100 15/10 Q1008
  • 050750Z 07019KT 9999 SCT030 BKN090 13/09 Q1008

TAF TAF LTFD
Valido dal 05 a 09 ore il 05 a 18 ore UTC


050740Z 0509/0518 07022G32KT 9999 -SHRA SCT030 BKN090



MetMap, La meteo Aeronautica in un colpo d'occhio ! - Copyright ORBIFLY Dicembre 2007 - Disclaimer

ORBIFLY MET'MAP TEAM :

Programmazione e sviluppo : Alexandra Zaïnal
Concezione : Baudouin d'Aumeries
Aiuto per la programmazione : Marc-Olivier Méhu
Supporto tecnico e logistico : Manuel Goepfert
Aiuto per la traduzione : Arnaldo La Scala

Contatto : metmap@orbifly.com




FONTI E CREDITI :

   NOAA